createdAt,value
2019-05-10T00:01:14.985Z,11.00
2019-05-10T00:06:37.042Z,11.00
2019-05-10T00:11:49.270Z,11.10
2019-05-10T00:16:55.085Z,11.10
2019-05-10T00:21:58.824Z,11.20
2019-05-10T00:27:02.475Z,11.20
2019-05-10T00:32:06.221Z,11.40
2019-05-10T00:37:09.804Z,11.50
2019-05-10T00:42:13.459Z,11.60
2019-05-10T00:47:17.491Z,11.60
2019-05-10T00:52:21.158Z,11.60
2019-05-10T00:57:24.725Z,11.60
2019-05-10T01:02:28.384Z,11.70
2019-05-10T01:07:32.042Z,11.80
2019-05-10T01:12:35.705Z,11.80
2019-05-10T01:17:39.376Z,11.90
2019-05-10T01:22:42.966Z,11.90
2019-05-10T01:27:46.702Z,11.90
2019-05-10T01:32:50.917Z,11.90
2019-05-10T01:37:54.503Z,11.90
2019-05-10T01:42:58.534Z,11.90
2019-05-10T01:48:02.570Z,11.90
2019-05-10T01:53:06.160Z,11.90
2019-05-10T01:58:09.822Z,11.90
2019-05-10T02:03:13.473Z,11.90
2019-05-10T02:08:17.128Z,11.90
2019-05-10T02:13:20.787Z,11.90
2019-05-10T02:18:24.522Z,11.90
2019-05-10T02:23:28.122Z,11.80
2019-05-10T02:28:31.709Z,11.80
2019-05-10T02:33:35.381Z,11.80
2019-05-10T02:38:38.969Z,11.70
2019-05-10T02:43:42.618Z,11.70
2019-05-10T02:48:46.364Z,11.70
2019-05-10T02:53:49.936Z,11.60
2019-05-10T02:58:55.461Z,11.60
2019-05-10T03:04:01.555Z,11.60
2019-05-10T03:09:07.336Z,11.70
2019-05-10T03:14:14.225Z,11.60
2019-05-10T03:19:20.495Z,11.70
2019-05-10T03:24:27.686Z,11.60
2019-05-10T03:29:29.458Z,11.60
2019-05-10T03:34:33.632Z,11.60
2019-05-10T03:39:37.432Z,11.60
2019-05-10T03:44:41.559Z,11.60
2019-05-10T03:50:07.792Z,11.60
2019-05-10T03:55:12.100Z,11.60
2019-05-10T04:00:16.547Z,11.60
2019-05-10T04:05:20.136Z,11.60
2019-05-10T04:10:23.724Z,11.60
2019-05-10T04:15:27.650Z,11.50
2019-05-10T04:20:31.315Z,11.50
2019-05-10T04:25:34.900Z,11.50
2019-05-10T04:30:38.558Z,11.50
2019-05-10T04:35:42.519Z,11.50
2019-05-10T04:40:46.477Z,11.50
2019-05-10T04:45:50.146Z,11.50
2019-05-10T04:50:54.100Z,11.50
2019-05-10T04:55:57.686Z,11.50
2019-05-10T05:01:01.298Z,11.60
2019-05-10T05:06:05.404Z,11.60
2019-05-10T05:11:09.311Z,11.70
2019-05-10T05:16:12.893Z,11.70
2019-05-10T05:21:16.489Z,11.80
2019-05-10T05:26:20.581Z,11.80
2019-05-10T05:31:24.265Z,11.80
2019-05-10T05:36:27.949Z,11.80
2019-05-10T05:41:32.114Z,11.70
2019-05-10T05:46:36.123Z,11.70
2019-05-10T05:51:39.784Z,11.70
2019-05-10T05:56:44.446Z,11.70
2019-05-10T06:01:49.317Z,11.60
2019-05-10T06:06:53.873Z,11.70
2019-05-10T06:11:58.268Z,11.70
2019-05-10T06:17:01.851Z,11.60
2019-05-10T06:22:07.006Z,11.70
2019-05-10T06:27:10.709Z,11.70
2019-05-10T06:32:14.298Z,11.80
2019-05-10T06:37:17.892Z,11.90
2019-05-10T06:42:21.547Z,12.10
2019-05-10T06:47:25.154Z,12.40
2019-05-10T06:52:29.865Z,12.40
2019-05-10T06:57:33.642Z,12.50
2019-05-10T07:02:37.623Z,12.40
2019-05-10T07:07:44.427Z,12.60
2019-05-10T07:12:46.811Z,12.60
2019-05-10T07:17:50.376Z,13.00
2019-05-10T07:22:54.333Z,13.20
2019-05-10T07:27:57.984Z,13.40
2019-05-10T07:33:02.234Z,13.70
2019-05-10T07:38:05.895Z,13.80
2019-05-10T07:43:09.548Z,13.60
2019-05-10T07:48:13.134Z,13.80
2019-05-10T07:53:22.909Z,14.00
2019-05-10T07:58:22.346Z,14.30
2019-05-10T08:03:25.925Z,14.20
2019-05-10T08:08:30.291Z,14.40
2019-05-10T08:13:33.937Z,14.40
2019-05-10T08:18:39.813Z,14.20
2019-05-10T08:23:43.858Z,14.10
2019-05-10T08:28:48.014Z,14.50
2019-05-10T08:33:58.295Z,14.50
2019-05-10T08:39:05.374Z,14.40
2019-05-10T08:44:04.819Z,14.30
2019-05-10T08:49:07.364Z,14.10
2019-05-10T08:54:12.177Z,14.20
2019-05-10T08:59:23.606Z,14.40
2019-05-10T09:04:22.238Z,14.40
2019-05-10T09:09:26.000Z,14.60
2019-05-10T09:14:29.620Z,15.10
2019-05-10T09:19:40.558Z,15.40
2019-05-10T09:24:40.994Z,15.50
2019-05-10T09:29:43.666Z,15.40
2019-05-10T09:34:47.246Z,15.20
2019-05-10T09:39:55.400Z,15.30
2019-05-10T09:44:56.146Z,15.70
2019-05-10T09:50:02.263Z,15.60
2019-05-10T09:55:10.193Z,15.90
2019-05-10T10:00:12.811Z,15.70
2019-05-10T10:05:17.961Z,16.10
2019-05-10T10:10:29.343Z,16.10
2019-05-10T10:15:33.185Z,15.90
2019-05-10T10:20:36.000Z,16.00
2019-05-10T10:25:41.062Z,16.20
2019-05-10T10:30:50.471Z,16.20
2019-05-10T10:35:50.605Z,16.30
2019-05-10T10:40:54.599Z,16.60
2019-05-10T10:45:58.261Z,16.80
2019-05-10T10:51:01.827Z,16.50
2019-05-10T10:56:07.583Z,16.70
2019-05-10T11:01:21.475Z,17.20
2019-05-10T11:06:16.603Z,18.40
2019-05-10T11:11:20.499Z,17.50
2019-05-10T11:16:24.076Z,17.00
2019-05-10T11:21:28.633Z,17.00
2019-05-10T11:26:36.846Z,16.50
2019-05-10T11:31:38.408Z,16.40
2019-05-10T11:36:46.103Z,16.80
2019-05-10T11:41:52.791Z,17.40
2019-05-10T11:46:53.393Z,17.40
2019-05-10T11:51:58.880Z,17.00
2019-05-10T11:57:09.703Z,16.90
2019-05-10T12:02:10.481Z,16.90
2019-05-10T12:07:13.981Z,16.90
2019-05-10T12:12:29.712Z,17.40
2019-05-10T12:17:23.951Z,17.50
2019-05-10T12:22:38.137Z,17.80
2019-05-10T12:27:44.091Z,18.00
2019-05-10T12:32:54.664Z,17.70
2019-05-10T12:37:46.153Z,18.20
2019-05-10T12:42:48.815Z,19.00
2019-05-10T12:47:52.810Z,18.80
2019-05-10T12:53:14.444Z,18.00
2019-05-10T12:58:01.653Z,17.90
2019-05-10T13:03:12.755Z,17.80
2019-05-10T13:08:10.550Z,17.60
2019-05-10T13:13:17.532Z,17.60
2019-05-10T13:18:23.083Z,18.20
2019-05-10T13:23:24.604Z,17.80
2019-05-10T13:28:28.199Z,17.60
2019-05-10T13:33:40.850Z,17.60
2019-05-10T13:38:44.002Z,17.90
2019-05-10T13:43:43.028Z,17.30
2019-05-10T13:48:46.609Z,17.10
2019-05-10T13:53:53.806Z,17.00
2019-05-10T13:58:55.810Z,17.10
2019-05-10T14:04:01.226Z,17.10
2019-05-10T14:09:07.281Z,17.00
2019-05-10T14:14:14.573Z,17.40
2019-05-10T14:19:22.993Z,17.70
2019-05-10T14:24:21.325Z,17.60
2019-05-10T14:29:32.912Z,17.40
2019-05-10T14:34:30.128Z,17.30
2019-05-10T14:39:33.708Z,17.50
2019-05-10T14:44:38.593Z,17.40
2019-05-10T14:49:46.934Z,17.20
2019-05-10T14:54:49.701Z,17.40
2019-05-10T14:59:53.590Z,17.10
2019-05-10T15:05:00.959Z,17.30
2019-05-10T15:10:02.772Z,17.30
2019-05-10T15:15:08.171Z,17.40
2019-05-10T15:20:12.314Z,17.30
2019-05-10T15:25:18.023Z,17.30
2019-05-10T15:30:21.677Z,17.40
2019-05-10T15:35:25.252Z,17.60
2019-05-10T15:40:29.198Z,18.30
2019-05-10T15:45:32.785Z,18.70
2019-05-10T15:50:38.454Z,18.10
2019-05-10T15:55:42.335Z,18.00
2019-05-10T16:00:46.249Z,17.80
2019-05-10T16:06:00.440Z,18.20
2019-05-10T16:10:55.445Z,18.60
2019-05-10T16:15:59.541Z,18.40
2019-05-10T16:21:03.249Z,18.30
2019-05-10T16:26:06.905Z,18.10
2019-05-10T16:31:10.848Z,18.30
2019-05-10T16:36:14.876Z,18.60
2019-05-10T16:41:18.483Z,18.70
2019-05-10T16:46:22.055Z,18.60
2019-05-10T16:51:25.722Z,18.30
2019-05-10T16:56:29.712Z,18.40
2019-05-10T17:01:33.772Z,18.20
2019-05-10T17:06:40.395Z,18.00
2019-05-10T17:11:46.916Z,17.90
2019-05-10T17:16:50.095Z,17.90
2019-05-10T17:21:53.217Z,17.80
2019-05-10T17:26:57.121Z,17.70
2019-05-10T17:32:00.780Z,17.50
2019-05-10T17:37:04.632Z,17.60
2019-05-10T17:42:08.454Z,17.50
2019-05-10T17:47:12.062Z,17.30
2019-05-10T17:52:15.636Z,17.20
2019-05-10T17:57:19.297Z,17.00
2019-05-10T18:02:23.212Z,17.10
2019-05-10T18:07:27.170Z,17.00
2019-05-10T18:12:30.832Z,17.00
2019-05-10T18:17:34.435Z,17.00
2019-05-10T18:22:43.692Z,17.00
2019-05-10T18:27:43.692Z,16.80
2019-05-10T18:32:47.617Z,16.80
2019-05-10T18:37:53.552Z,16.60
2019-05-10T18:42:57.720Z,16.40
2019-05-10T18:48:02.530Z,16.20
2019-05-10T18:53:06.170Z,16.10
2019-05-10T18:58:31.477Z,15.80
2019-05-10T19:03:35.508Z,15.80
2019-05-10T19:08:39.295Z,15.30
2019-05-10T19:13:47.925Z,15.00
2019-05-10T19:18:48.226Z,14.80
2019-05-10T19:23:53.537Z,14.50
2019-05-10T19:28:59.021Z,14.30
2019-05-10T19:34:02.595Z,14.20
2019-05-10T19:39:07.565Z,14.10
2019-05-10T19:44:11.250Z,14.00
2019-05-10T19:49:15.604Z,14.00
2019-05-10T19:54:21.092Z,14.10
2019-05-10T19:59:24.968Z,14.20
2019-05-10T20:04:28.627Z,14.30
2019-05-10T20:09:32.407Z,14.30
2019-05-10T20:14:36.421Z,14.20
2019-05-10T20:19:40.084Z,14.10
2019-05-10T20:24:43.675Z,14.10
2019-05-10T20:29:47.403Z,14.20
2019-05-10T20:34:51.065Z,13.90
2019-05-10T20:39:54.844Z,13.80
2019-05-10T20:45:07.455Z,13.90
2019-05-10T20:50:04.481Z,14.00
2019-05-10T20:55:08.625Z,14.10
2019-05-10T21:00:13.679Z,14.00
2019-05-10T21:05:20.458Z,13.90
2019-05-10T21:10:24.463Z,14.00
2019-05-10T21:15:28.253Z,14.10
2019-05-10T21:20:32.203Z,14.10
2019-05-10T21:25:36.177Z,14.10
2019-05-10T21:30:39.850Z,14.10
2019-05-10T21:35:43.679Z,13.90
2019-05-10T21:40:55.679Z,13.80
2019-05-10T21:45:59.663Z,13.80
2019-05-10T21:51:03.614Z,13.50
2019-05-10T21:56:07.306Z,13.70
2019-05-10T22:01:11.057Z,13.70
2019-05-10T22:06:14.793Z,13.80
2019-05-10T22:11:37.836Z,13.80
2019-05-10T22:16:41.456Z,13.90
2019-05-10T22:21:45.511Z,13.70
2019-05-10T22:26:49.185Z,13.60
2019-05-10T22:31:52.907Z,13.60
2019-05-10T22:36:57.000Z,13.60
2019-05-10T22:42:00.668Z,13.50
2019-05-10T22:47:04.304Z,13.50
2019-05-10T22:52:07.929Z,13.50
2019-05-10T22:57:11.690Z,13.60
2019-05-10T23:02:15.312Z,13.60
2019-05-10T23:07:20.046Z,13.50
2019-05-10T23:12:23.660Z,13.60
2019-05-10T23:17:27.284Z,13.70
2019-05-10T23:22:32.834Z,13.80
2019-05-10T23:27:36.761Z,14.50
2019-05-10T23:32:40.551Z,14.90
2019-05-10T23:37:44.556Z,15.10
2019-05-10T23:42:48.202Z,15.10
2019-05-10T23:47:51.851Z,15.00
2019-05-10T23:52:55.446Z,15.00
2019-05-10T23:57:59.096Z,14.90
